Time;durP1;ratioP1;P1;durP2;ratioP2;P2;SDS_P1;SDS_P2;PMS_P1;PMS_P2;Temp;Humidity;BMP_temperature;BMP_pressure;BME280_temperature;BME280_humidity;BME280_pressure;Samples;Min_cycle;Max_cycle;Signal;HPM_P1;HPM_P2
2021/01/14 00:00:00;;;;;;;3.42;0.50;;;14.60;50.00;;;;;;6253633;22;20018;-84
2021/01/14 00:02:26;;;;;;;2.20;0.40;;;14.60;49.90;;;;;;6252934;22;20301;-84
2021/01/14 00:04:52;;;;;;;1.75;0.30;;;14.60;49.90;;;;;;6228149;22;20086;-82
2021/01/14 00:07:20;;;;;;;3.05;0.98;;;14.60;49.90;;;;;;6253850;22;20012;-83
2021/01/14 00:09:46;;;;;;;2.33;0.93;;;14.60;49.90;;;;;;6228228;22;20377;-83
2021/01/14 00:12:12;;;;;;;2.92;0.63;;;14.50;49.80;;;;;;6227355;22;20019;-85
2021/01/14 00:14:38;;;;;;;3.10;0.50;;;14.50;49.80;;;;;;6253811;22;20019;-82
2021/01/14 00:17:04;;;;;;;2.30;0.40;;;14.50;49.80;;;;;;6227968;22;20301;-82
2021/01/14 00:19:30;;;;;;;1.67;0.50;;;14.50;50.60;;;;;;6253964;22;20014;-85
2021/01/14 00:21:56;;;;;;;3.83;0.47;;;14.50;50.10;;;;;;6253032;22;20007;-83
2021/01/14 00:24:22;;;;;;;2.58;0.40;;;14.50;50.10;;;;;;6227953;22;20358;-83
2021/01/14 00:26:48;;;;;;;2.47;0.50;;;14.50;50.20;;;;;;6252970;22;20004;-83
2021/01/14 00:29:14;;;;;;;3.22;0.50;;;14.50;50.20;;;;;;6253179;22;20058;-84
2021/01/14 00:31:40;;;;;;;3.63;0.55;;;14.50;50.10;;;;;;6228108;22;20058;-83
2021/01/14 00:34:09;;;;;;;2.35;0.40;;;14.50;50.10;;;;;;6228676;22;20069;-83
2021/01/14 00:39:25;;;;;;;3.10;0.50;;;14.50;50.10;;;;;;6279962;22;20082;-83
2021/01/14 00:41:51;;;;;;;2.25;0.77;;;14.50;50.20;;;;;;6228514;22;20008;-82
2021/01/14 00:44:18;;;;;;;3.25;0.68;;;14.40;50.00;;;;;;6228134;22;20069;-82
2021/01/14 00:46:44;;;;;;;1.85;0.57;;;14.40;50.00;;;;;;6253452;22;20008;-82
2021/01/14 00:49:11;;;;;;;4.80;0.60;;;14.40;49.90;;;;;;6227407;22;20014;-82
2021/01/14 00:51:38;;;;;;;2.85;0.38;;;14.40;49.80;;;;;;6227498;22;20008;-82
2021/01/14 00:54:05;;;;;;;2.15;0.30;;;14.40;49.90;;;;;;6252889;22;20008;-82
2021/01/14 00:56:35;;;;;;;1.77;0.50;;;14.40;50.00;;;;;;6263573;22;20018;-83
2021/01/14 00:59:02;;;;;;;3.13;0.70;;;14.40;50.10;;;;;;6253554;22;20033;-81
2021/01/14 01:01:29;;;;;;;2.08;0.50;;;14.40;50.10;;;;;;6227727;22;20064;-82
2021/01/14 01:03:55;;;;;;;2.28;0.60;;;14.40;50.20;;;;;;6252592;22;20007;-83
2021/01/14 01:06:21;;;;;;;1.55;0.32;;;14.40;50.20;;;;;;6252441;22;20011;-83
2021/01/14 01:08:48;;;;;;;1.60;0.20;;;14.40;50.10;;;;;;6252672;22;20011;-82
2021/01/14 01:11:15;;;;;;;2.50;0.45;;;14.40;50.10;;;;;;6227858;22;20018;-83
2021/01/14 01:13:41;;;;;;;2.67;0.73;;;14.30;50.10;;;;;;6227704;22;20470;-83
2021/01/14 01:16:06;;;;;;;2.92;0.30;;;14.40;50.10;;;;;;6252727;22;20026;-81
2021/01/14 01:18:33;;;;;;;2.40;0.52;;;14.30;50.10;;;;;;6227135;22;20015;-83
2021/01/14 01:21:05;;;;;;;1.30;0.32;;;14.40;50.10;;;;;;6252530;22;20138;-82
2021/01/14 01:23:31;;;;;;;3.17;0.60;;;14.30;50.00;;;;;;6227281;22;20008;-83
2021/01/14 01:25:56;;;;;;;2.08;0.40;;;14.40;50.10;;;;;;6227802;22;20321;-82
2021/01/14 01:28:22;;;;;;;2.67;0.70;;;14.30;50.00;;;;;;6252641;22;20015;-83
2021/01/14 01:30:48;;;;;;;1.55;0.65;;;14.40;50.00;;;;;;6262981;22;20014;-82
2021/01/14 01:33:14;;;;;;;2.50;0.60;;;14.30;50.00;;;;;;6227068;22;20007;-82
2021/01/14 01:35:40;;;;;;;2.67;0.50;;;14.40;50.10;;;;;;6227872;22;20015;-82
2021/01/14 01:38:06;;;;;;;1.65;0.50;;;14.30;50.00;;;;;;6226723;22;20009;-81
2021/01/14 01:40:32;;;;;;;3.25;0.68;;;14.30;50.00;;;;;;6263259;22;20061;-82
2021/01/14 01:42:58;;;;;;;2.17;0.38;;;14.30;50.00;;;;;;6226700;22;20008;-83
2021/01/14 01:45:24;;;;;;;2.30;0.40;;;14.30;50.00;;;;;;6227083;22;20420;-82
2021/01/14 01:47:51;;;;;;;2.35;0.40;;;14.30;50.10;;;;;;6252188;22;20023;-83
2021/01/14 01:50:20;;;;;;;4.10;0.63;;;14.30;50.00;;;;;;6226915;22;20023;-83
2021/01/14 01:52:48;;;;;;;2.58;0.52;;;14.40;50.10;;;;;;6252235;22;20035;-83
2021/01/14 01:55:15;;;;;;;1.77;0.40;;;14.30;50.00;;;;;;6252912;22;20083;-83
2021/01/14 01:57:41;;;;;;;2.25;0.57;;;14.30;50.10;;;;;;6216034;23;20020;-83
2021/01/14 02:00:07;;;;;;;1.95;0.47;;;14.30;50.10;;;;;;6190352;23;20384;-84
2021/01/14 02:02:33;;;;;;;2.30;0.55;;;14.30;50.20;;;;;;6190209;23;20052;-82
2021/01/14 02:04:59;;;;;;;2.33;0.35;;;14.30;50.20;;;;;;6191220;23;20008;-83
2021/01/14 02:07:36;;;;;;;1.77;0.30;;;14.30;50.20;;;;;;6190532;23;20032;-83
2021/01/14 02:10:08;;;;;;;2.60;0.45;;;14.30;50.10;;;;;;6190688;23;20020;-82
2021/01/14 02:13:00;;;;;;;2.58;0.52;;;14.30;50.10;;;;;;6189916;23;20017;-84
2021/01/14 02:15:27;;;;;;;1.55;0.45;;;14.30;50.10;;;;;;6164814;23;20012;-82
2021/01/14 02:17:53;;;;;;;2.45;0.47;;;14.30;50.10;;;;;;6190661;23;20036;-83
2021/01/14 02:20:21;;;;;;;2.97;0.40;;;14.30;50.10;;;;;;6190326;23;20012;-83
2021/01/14 02:22:56;;;;;;;3.00;0.45;;;14.30;50.00;;;;;;6190316;23;20012;-82
2021/01/14 02:25:26;;;;;;;1.83;0.47;;;14.30;50.00;;;;;;6190290;23;20024;-83
2021/01/14 02:27:53;;;;;;;2.70;0.40;;;14.30;50.00;;;;;;6226768;22;20429;-82
2021/01/14 02:30:19;;;;;;;2.08;0.70;;;14.20;50.00;;;;;;6278549;22;20011;-83
2021/01/14 02:32:45;;;;;;;4.18;0.43;;;14.30;50.00;;;;;;6251885;22;20028;-83
2021/01/14 02:35:12;;;;;;;3.78;0.85;;;14.20;49.90;;;;;;6245420;22;20424;-81
2021/01/14 02:37:38;;;;;;;4.72;0.50;;;14.20;49.90;;;;;;6251797;22;20015;-82
2021/01/14 02:40:05;;;;;;;1.77;0.30;;;14.20;49.90;;;;;;6252280;22;20030;-81
2021/01/14 02:42:31;;;;;;;3.90;0.40;;;14.20;49.90;;;;;;6226503;22;20007;-82
2021/01/14 02:44:57;;;;;;;3.08;0.40;;;14.20;49.90;;;;;;6252017;22;20079;-83
2021/01/14 02:47:24;;;;;;;2.03;0.50;;;14.20;49.80;;;;;;6252344;22;20065;-81
2021/01/14 02:49:55;;;;;;;2.80;0.65;;;14.20;49.70;;;;;;6278750;22;20014;-81
2021/01/14 02:52:23;;;;;;;3.28;0.35;;;14.20;49.70;;;;;;6251380;22;20099;-83
2021/01/14 02:54:49;;;;;;;2.42;0.40;;;14.20;49.70;;;;;;6262288;22;20012;-82
2021/01/14 02:57:18;;;;;;;2.38;0.60;;;14.20;49.70;;;;;;6227877;22;20011;-83
2021/01/14 02:59:45;;;;;;;3.30;0.60;;;14.20;49.70;;;;;;6251817;22;20046;-83
2021/01/14 03:02:11;;;;;;;3.63;0.63;;;14.20;49.70;;;;;;6226452;22;20008;-81
2021/01/14 03:04:37;;;;;;;2.00;0.35;;;14.20;49.70;;;;;;6251639;22;20018;-82
2021/01/14 03:07:03;;;;;;;2.20;0.30;;;14.20;49.70;;;;;;6251888;22;20012;-83
2021/01/14 03:09:29;;;;;;;3.50;0.65;;;14.20;49.70;;;;;;6252452;22;20069;-82
2021/01/14 03:11:55;;;;;;;1.58;0.50;;;14.20;49.70;;;;;;6252047;22;20008;-85
2021/01/14 03:14:20;;;;;;;1.83;0.40;;;14.10;49.70;;;;;;6251718;22;20075;-83
2021/01/14 03:16:46;;;;;;;3.05;0.52;;;14.10;49.70;;;;;;6226536;22;20038;-82
2021/01/14 03:19:12;;;;;;;2.70;0.40;;;14.20;49.70;;;;;;6226819;22;20015;-82
2021/01/14 03:21:38;;;;;;;2.08;0.40;;;14.20;50.40;;;;;;6226710;22;20301;-82
2021/01/14 03:24:04;;;;;;;2.92;0.50;;;14.20;49.70;;;;;;6226291;22;20057;-81
2021/01/14 03:26:34;;;;;;;3.03;0.52;;;14.20;49.70;;;;;;6252052;22;20064;-82
2021/01/14 03:29:00;;;;;;;2.78;0.60;;;14.20;49.70;;;;;;6251700;22;20086;-83
2021/01/14 03:31:25;;;;;;;2.75;0.30;;;14.20;49.70;;;;;;6227045;22;20031;-82
2021/01/14 03:33:51;;;;;;;5.03;0.60;;;14.20;49.70;;;;;;6253628;22;20008;-82
2021/01/14 03:36:19;;;;;;;4.57;0.60;;;14.20;49.70;;;;;;6253263;22;20023;-83
2021/01/14 03:38:47;;;;;;;3.35;0.38;;;14.20;49.70;;;;;;6280996;22;20012;-82
2021/01/14 03:41:15;;;;;;;1.92;0.40;;;14.20;49.70;;;;;;6228340;22;20091;-83
2021/01/14 03:43:41;;;;;;;3.13;0.63;;;14.20;49.60;;;;;;6228451;22;20406;-83
2021/01/14 03:46:09;;;;;;;5.10;0.75;;;14.20;49.70;;;;;;6254085;22;20035;-83
2021/01/14 03:48:40;;;;;;;1.92;0.50;;;14.10;49.50;;;;;;6253208;22;20015;-83
2021/01/14 03:51:17;;;;;;;2.85;0.50;;;14.20;49.60;;;;;;6228380;22;20015;-83
2021/01/14 03:53:48;;;;;;;3.92;0.90;;;14.10;49.50;;;;;;6227974;22;20304;-83
2021/01/14 03:56:14;;;;;;;3.47;0.45;;;14.10;50.10;;;;;;6228301;22;20012;-82
2021/01/14 03:58:40;;;;;;;3.95;0.70;;;14.10;49.40;;;;;;6254415;22;20003;-82
2021/01/14 04:01:07;;;;;;;3.75;0.47;;;14.10;49.40;;;;;;6228035;22;20011;-81
2021/01/14 04:03:33;;;;;;;2.25;0.70;;;14.10;49.40;;;;;;6253097;22;20087;-82
2021/01/14 04:05:59;;;;;;;2.15;0.40;;;14.10;49.40;;;;;;6254120;22;20007;-82
2021/01/14 04:08:25;;;;;;;4.03;0.75;;;14.10;49.40;;;;;;6263466;22;20019;-82
2021/01/14 04:10:51;;;;;;;3.28;0.80;;;14.10;49.40;;;;;;6253233;22;20072;-84
2021/01/14 04:13:20;;;;;;;3.00;0.50;;;14.10;49.40;;;;;;6228496;22;20019;-83
2021/01/14 04:15:46;;;;;;;3.72;0.50;;;14.10;49.30;;;;;;6279711;22;20461;-83
2021/01/14 04:18:11;;;;;;;2.38;0.70;;;14.10;49.40;;;;;;6253552;22;20047;-82
2021/01/14 04:20:38;;;;;;;1.83;0.50;;;14.10;49.30;;;;;;6263641;22;20027;-81
2021/01/14 04:23:04;;;;;;;3.20;0.50;;;14.10;49.30;;;;;;6253584;22;20007;-84
2021/01/14 04:25:30;;;;;;;2.33;0.57;;;14.10;49.20;;;;;;6252907;22;20015;-82
2021/01/14 04:28:00;;;;;;;2.00;0.50;;;14.10;49.20;;;;;;6227735;22;20008;-84
2021/01/14 04:30:27;;;;;;;4.28;1.13;;;14.10;49.20;;;;;;6227981;22;20016;-83
2021/01/14 04:32:59;;;;;;;4.32;0.82;;;14.00;49.10;;;;;;6253465;22;20015;-83
2021/01/14 04:35:26;;;;;;;1.70;0.43;;;14.00;49.10;;;;;;6227509;22;20008;-83
2021/01/14 04:37:51;;;;;;;3.03;0.77;;;14.10;49.20;;;;;;6227908;22;20008;-82
2021/01/14 04:40:18;;;;;;;2.97;0.40;;;14.00;49.00;;;;;;6252619;22;20012;-83
2021/01/14 04:42:48;;;;;;;3.20;0.50;;;14.10;49.10;;;;;;6228658;22;20014;-83
2021/01/14 04:45:15;;;;;;;2.33;0.75;;;14.00;49.00;;;;;;6227849;22;20008;-82
2021/01/14 04:47:48;;;;;;;3.05;0.70;;;14.00;49.00;;;;;;6252865;22;20055;-82
2021/01/14 04:50:16;;;;;;;1.23;0.30;;;14.00;49.00;;;;;;6252735;22;20004;-81
2021/01/14 04:52:42;;;;;;;3.30;0.60;;;14.00;49.00;;;;;;6253115;22;20065;-83
2021/01/14 04:55:15;;;;;;;2.28;0.50;;;14.00;49.00;;;;;;6227319;22;20008;-83
2021/01/14 04:57:47;;;;;;;2.03;0.40;;;14.00;48.90;;;;;;6253086;22;20019;-82
2021/01/14 05:00:14;;;;;;;1.85;0.60;;;14.00;48.90;;;;;;6252498;22;20003;-83
2021/01/14 05:03:03;;;;;;;3.42;0.60;;;14.00;48.90;;;;;;6252799;22;20292;-82
2021/01/14 05:05:31;;;;;;;2.40;0.40;;;14.00;48.80;;;;;;6263265;22;20483;-81
2021/01/14 05:08:08;;;;;;;3.38;0.45;;;14.00;48.80;;;;;;6252629;22;20007;-83
2021/01/14 05:10:35;;;;;;;1.50;0.30;;;14.00;48.70;;;;;;6227186;22;20091;-83
2021/01/14 05:13:02;;;;;;;1.85;0.50;;;14.00;48.80;;;;;;6253070;22;20060;-83
2021/01/14 05:15:29;;;;;;;2.45;0.40;;;14.00;48.80;;;;;;6252860;22;20003;-81
2021/01/14 05:17:59;;;;;;;3.55;0.80;;;13.90;48.60;;;;;;6226829;22;20015;-82
2021/01/14 05:20:26;;;;;;;2.25;0.32;;;14.00;48.70;;;;;;6251939;22;20007;-83
2021/01/14 05:23:02;;;;;;;4.35;0.75;;;14.00;48.70;;;;;;6226619;22;20098;-80
2021/01/14 05:25:40;;;;;;;6.28;0.60;;;14.00;49.50;;;;;;6278920;22;20103;-82
2021/01/14 05:28:14;;;;;;;2.65;0.43;;;14.00;49.10;;;;;;6245448;22;20022;-84
2021/01/14 05:30:47;;;;;;;3.03;0.50;;;14.10;49.30;;;;;;6227265;22;20008;-84
2021/01/14 05:33:25;;;;;;;5.43;0.52;;;14.10;49.50;;;;;;6254775;22;20007;-80
2021/01/14 05:35:53;;;;;;;4.25;0.70;;;14.10;49.90;;;;;;6226985;22;20007;-78
2021/01/14 05:38:30;;;;;;;2.60;0.40;;;14.20;50.40;;;;;;6288981;22;20011;-82
2021/01/14 05:41:26;;;;;;;1.70;0.60;;;14.20;50.80;;;;;;6288818;22;20297;-86
2021/01/14 05:43:58;;;;;;;1.98;0.50;;;14.30;51.20;;;;;;6206093;22;20443;-83
2021/01/14 05:46:35;;;;;;;2.22;0.50;;;14.40;51.50;;;;;;6245677;23;20120;-82
2021/01/14 05:49:21;;;;;;;7.00;0.80;;;14.50;52.30;;;;;;6245180;23;20020;-86
2021/01/14 05:51:56;;;;;;;9.43;0.90;;;14.60;51.70;;;;;;6243259;23;20324;-86
2021/01/14 05:54:44;;;;;;;6.38;0.82;;;14.70;51.80;;;;;;6218046;23;20022;-85
2021/01/14 06:00:52;;;;;;;6.50;0.95;;;14.90;52.00;;;;;;6220307;23;20011;-86
2021/01/14 06:03:58;;;;;;;4.63;0.88;;;15.00;52.40;;;;;;6245491;23;20083;-86
2021/01/14 06:06:31;;;;;;;5.65;1.05;;;15.10;52.60;;;;;;6219852;23;20008;-88
2021/01/14 06:13:03;;;;;;;9.88;0.80;;;15.10;52.90;;;;;;6169092;23;20013;-85
2021/01/14 06:16:03;;;;;;;;;;;;;;;;;;;;;
2021/01/14 06:19:00;;;;;;;8.93;1.52;;;15.30;53.40;;;;;;6227686;23;20080;-79
2021/01/14 06:21:47;;;;;;;12.82;1.55;;;15.30;51.00;;;;;;6227545;23;20071;-87
2021/01/14 06:24:28;;;;;;;11.43;1.42;;;15.30;51.90;;;;;;6221148;23;20019;-87
2021/01/14 06:27:11;;;;;;;7.45;1.10;;;15.20;51.00;;;;;;6257362;23;20012;-86
2021/01/14 06:30:02;;;;;;;10.93;1.67;;;15.20;51.40;;;;;;6195900;23;20016;-85
2021/01/14 06:32:39;;;;;;;14.98;1.40;;;15.20;51.80;;;;;;6197862;23;20019;-86
2021/01/14 06:35:16;;;;;;;8.57;1.33;;;15.30;52.00;;;;;;6197658;23;20443;-86
2021/01/14 06:37:53;;;;;;;5.88;1.13;;;15.40;51.90;;;;;;6195772;23;20016;-80
2021/01/14 06:40:31;;;;;;;6.93;1.15;;;15.40;51.70;;;;;;6257338;23;20306;-85
2021/01/14 06:43:15;;;;;;;10.95;1.30;;;15.50;51.40;;;;;;6221181;23;20357;-86
2021/01/14 06:46:00;;;;;;;8.80;1.10;;;15.50;51.80;;;;;;6195557;23;20337;-83
2021/01/14 06:48:38;;;;;;;5.75;1.15;;;15.70;52.10;;;;;;6195186;23;20012;-85
2021/01/14 06:51:42;;;;;;;4.65;1.27;;;15.70;52.20;;;;;;6220592;23;20437;-86
2021/01/14 07:25:48;;;;;;;9.55;1.10;;;15.60;50.80;;;;;;6309804;22;20365;-84
2021/01/14 07:38:24;;;;;;;12.95;1.75;;;15.50;50.10;;;;;;6257510;22;20432;-85
2021/01/14 07:40:53;;;;;;;9.15;1.23;;;15.50;50.50;;;;;;6253325;22;20432;-84
2021/01/14 07:43:37;;;;;;;14.15;1.60;;;15.50;51.00;;;;;;6253704;22;20020;-82
2021/01/14 07:46:14;;;;;;;7.00;1.40;;;15.60;50.90;;;;;;6228317;22;20015;-84
2021/01/14 07:48:40;;;;;;;7.80;1.02;;;15.60;51.00;;;;;;6263578;22;20065;-84
2021/01/14 07:51:09;;;;;;;9.13;1.50;;;15.60;51.40;;;;;;6228155;22;20014;-86
2021/01/14 07:53:35;;;;;;;7.57;1.23;;;15.60;51.10;;;;;;6228041;22;20008;-85
2021/01/14 07:56:26;;;;;;;5.88;1.40;;;15.60;51.10;;;;;;6228100;22;20037;-85
2021/01/14 07:58:58;;;;;;;8.05;1.00;;;15.60;51.10;;;;;;6227544;22;20072;-85
2021/01/14 08:01:24;;;;;;;5.13;1.05;;;15.60;51.00;;;;;;6227521;22;20008;-85
2021/01/14 08:03:54;;;;;;;3.42;1.10;;;15.60;51.00;;;;;;6228736;22;20079;-84
2021/01/14 08:06:24;;;;;;;3.95;0.90;;;15.60;51.00;;;;;;6227486;22;20101;-85
2021/01/14 08:09:02;;;;;;;10.73;1.70;;;15.60;51.00;;;;;;6253286;22;20004;-85
2021/01/14 08:11:33;;;;;;;5.93;0.90;;;15.60;51.20;;;;;;6227430;22;20004;-87
2021/01/14 08:14:18;;;;;;;5.78;1.08;;;15.60;51.00;;;;;;6227683;22;20011;-84
2021/01/14 08:16:56;;;;;;;14.65;1.88;;;15.50;51.00;;;;;;6262481;22;20350;-85
2021/01/14 08:19:33;;;;;;;13.52;2.10;;;15.50;46.90;;;;;;6227766;22;20015;-85
2021/01/14 08:22:52;;;;;;;14.27;1.48;;;15.30;46.60;;;;;;6227508;22;20084;-87
2021/01/14 08:25:36;;;;;;;5.78;1.40;;;15.20;49.30;;;;;;6216016;23;20020;-85
2021/01/14 08:42:44;;;;;;;17.05;2.40;;;15.60;49.90;;;;;;6270009;22;20018;-81
2021/01/14 08:49:17;;;;;;;14.82;2.05;;;15.80;50.20;;;;;;6309591;22;20020;-87
2021/01/14 08:52:02;;;;;;;15.20;2.42;;;15.80;50.30;;;;;;6256949;22;20270;-83
2021/01/14 08:54:56;;;;;;;13.68;1.73;;;15.80;49.90;;;;;;6307042;22;20019;-83
2021/01/14 08:57:22;;;;;;;;;;;15.80;50.50;;;;;;6307109;22;20011;-84
2021/01/14 09:00:06;;;;;;;14.00;2.20;;;15.90;50.70;;;;;;6308926;22;19982;-86
2021/01/14 09:02:49;;;;;;;16.58;2.42;;;15.90;51.30;;;;;;6282773;22;20015;-84
2021/01/14 09:06:06;;;;;;;;;;;;;;;;;;;;;
2021/01/14 09:12:31;;;;;;;12.77;2.45;;;16.00;51.70;;;;;;6209726;22;20021;-84
2021/01/14 09:15:53;;;;;;;11.75;2.30;;;16.00;51.20;;;;;;6257396;22;20077;-86
2021/01/14 09:18:50;;;;;;;11.05;2.58;;;15.90;51.40;;;;;;6131518;23;20013;-86
2021/01/14 09:22:22;;;;;;;9.50;1.63;;;16.00;51.50;;;;;;6162878;23;20013;-86
2021/01/14 09:55:07;;;;;;;5.70;1.60;;;15.90;49.30;;;;;;6254485;22;20024;31
2021/01/14 09:58:04;;;;;;;5.72;2.28;;;15.90;49.30;;;;;;6156059;23;20056;-87
2021/01/14 10:00:31;;;;;;;7.88;2.50;;;15.70;45.60;;;;;;6107436;23;20013;-84
2021/01/14 10:03:06;;;;;;;7.68;2.50;;;15.60;46.70;;;;;;6107136;23;20033;-82
2021/01/14 10:05:32;;;;;;;6.07;1.77;;;15.50;47.70;;;;;;6107846;23;20449;-82
2021/01/14 10:08:01;;;;;;;17.35;2.42;;;15.50;48.10;;;;;;6130444;23;20036;-81
2021/01/14 10:10:31;;;;;;;6.20;1.83;;;15.40;48.60;;;;;;6142628;23;20021;-83
2021/01/14 10:13:31;;;;;;;12.95;2.70;;;15.50;49.40;;;;;;6158199;23;20013;-85
2021/01/14 10:16:15;;;;;;;7.32;1.75;;;15.50;50.20;;;;;;6079075;23;20073;-79
2021/01/14 10:18:41;;;;;;;9.18;2.65;;;15.60;50.60;;;;;;6167226;23;20012;-80
2021/01/14 10:21:07;;;;;;;7.72;2.20;;;15.60;50.20;;;;;;6131787;23;20365;-83
2021/01/14 10:23:33;;;;;;;19.88;2.30;;;15.50;50.30;;;;;;6157595;23;20013;-80
2021/01/14 10:26:23;;;;;;;8.52;2.63;;;15.60;50.70;;;;;;6142155;23;20013;-84
2021/01/14 10:32:29;;;;;;;6.95;1.75;;;15.60;51.60;;;;;;6130353;23;20006;-85
2021/01/14 10:34:59;;;;;;;7.00;1.63;;;15.70;51.60;;;;;;6142195;23;20087;-84
2021/01/14 10:37:35;;;;;;;7.38;1.90;;;15.80;51.80;;;;;;6131609;23;20442;-86
2021/01/14 10:40:40;;;;;;;9.15;2.08;;;15.90;51.90;;;;;;6141088;23;20006;-83
2021/01/14 10:43:07;;;;;;;6.53;1.70;;;16.00;52.00;;;;;;6121837;23;20032;-83
2021/01/14 10:45:34;;;;;;;3.55;1.42;;;16.00;52.20;;;;;;6108033;23;20005;-83
2021/01/14 10:48:17;;;;;;;7.25;1.42;;;16.10;52.10;;;;;;6107638;23;20071;-83
2021/01/14 10:55:30;;;;;;;6.00;1.60;;;16.20;52.10;;;;;;6118643;23;20013;-84
2021/01/14 10:58:55;;;;;;;6.03;1.85;;;16.30;51.90;;;;;;6108724;23;20017;-84
2021/01/14 11:01:59;;;;;;;9.05;2.00;;;16.30;51.80;;;;;;6144006;23;20164;-83
2021/01/14 11:04:58;;;;;;;5.28;1.40;;;16.20;51.60;;;;;;6105601;23;20029;-84
2021/01/14 11:19:03;;;;;;;3.30;1.20;;;16.20;50.90;;;;;;6252449;22;20308;-84
2021/01/14 11:26:36;;;;;;;;;;;;;;;;;;;;;
2021/01/14 11:29:59;;;;;;;5.97;2.00;;;16.20;51.70;;;;;;6066472;23;20098;-85
2021/01/14 11:32:43;;;;;;;3.95;1.40;;;16.20;51.20;;;;;;6092080;22;20032;-84
2021/01/14 11:36:28;;;;;;;4.95;1.45;;;16.20;51.20;;;;;;6256624;22;20011;-85
2021/01/14 11:39:49;;;;;;;6.97;1.75;;;16.10;51.20;;;;;;6163785;23;20039;-84
2021/01/14 11:51:47;;;;;;;11.52;2.75;;;16.10;51.00;;;;;;6018452;23;20043;-84
2021/01/14 13:09:35;;;;;;;2.38;1.63;;;16.10;50.00;;;;;;5573772;22;15096803;-84
2021/01/14 13:15:56;;;;;;;7.85;1.80;;;16.10;49.20;;;;;;6101916;23;20038;-79
2021/01/14 13:18:22;;;;;;;10.50;2.55;;;16.00;49.60;;;;;;6174358;23;20020;-82
2021/01/14 13:20:51;;;;;;;7.93;2.05;;;15.90;48.00;;;;;;6174877;23;20019;-82
2021/01/14 13:23:17;;;;;;;5.65;1.60;;;15.80;48.30;;;;;;6175189;23;20018;-83
2021/01/14 13:25:43;;;;;;;5.15;2.00;;;15.80;48.70;;;;;;6175294;23;20079;-83
2021/01/14 13:28:09;;;;;;;7.93;1.80;;;15.80;48.90;;;;;;6174501;23;20027;-84
2021/01/14 13:30:35;;;;;;;6.13;1.90;;;15.80;49.10;;;;;;6199991;23;20016;-82
2021/01/14 13:33:02;;;;;;;5.53;1.38;;;15.80;49.10;;;;;;6199442;23;20012;-82
2021/01/14 13:35:28;;;;;;;4.82;1.67;;;15.80;49.10;;;;;;6199394;23;20012;-81
2021/01/14 13:37:53;;;;;;;3.75;1.67;;;15.80;49.10;;;;;;6225007;23;20425;-83
2021/01/14 13:40:19;;;;;;;6.05;1.58;;;15.80;49.10;;;;;;6222782;23;20013;-83
2021/01/14 13:42:45;;;;;;;5.85;1.85;;;15.80;49.10;;;;;;6193365;23;20087;-83
2021/01/14 13:45:11;;;;;;;3.58;1.50;;;15.80;49.10;;;;;;6219159;23;20017;-84
2021/01/14 13:47:37;;;;;;;4.03;2.10;;;15.80;49.20;;;;;;6192738;23;20009;-83
2021/01/14 13:50:04;;;;;;;4.00;1.77;;;15.80;49.10;;;;;;6168303;23;20017;-85
2021/01/14 13:52:29;;;;;;;2.97;1.65;;;15.80;49.10;;;;;;6168016;23;20305;-82
2021/01/14 13:54:55;;;;;;;4.03;1.35;;;15.80;49.10;;;;;;6168165;23;20017;-83
2021/01/14 13:57:21;;;;;;;3.15;1.67;;;15.90;49.10;;;;;;6193041;23;20016;-83
2021/01/14 13:59:47;;;;;;;4.32;2.00;;;15.80;49.10;;;;;;6167747;23;20421;-82
2021/01/14 14:02:12;;;;;;;5.07;2.22;;;15.90;49.10;;;;;;6167979;23;20024;-83
2021/01/14 14:04:39;;;;;;;2.45;1.50;;;15.80;49.00;;;;;;6167362;23;20009;-83
2021/01/14 14:07:05;;;;;;;4.43;1.70;;;15.80;49.00;;;;;;6192881;23;20410;-81
2021/01/14 14:09:31;;;;;;;5.13;1.40;;;15.90;49.10;;;;;;6192077;23;20022;-81
2021/01/14 14:11:56;;;;;;;3.00;1.80;;;15.90;49.00;;;;;;6167753;23;20012;-82
2021/01/14 14:14:23;;;;;;;5.85;1.92;;;15.90;49.00;;;;;;6168093;23;20067;-83
2021/01/14 14:16:53;;;;;;;3.85;1.55;;;15.90;49.00;;;;;;6167628;23;20024;-81
2021/01/14 14:19:20;;;;;;;2.78;1.65;;;15.90;49.00;;;;;;6166859;23;20104;-83
2021/01/14 14:21:52;;;;;;;2.50;1.65;;;15.80;48.90;;;;;;6167305;23;20016;-82
2021/01/14 14:24:19;;;;;;;3.40;1.70;;;15.90;48.90;;;;;;6167889;23;20092;-80
2021/01/14 14:26:44;;;;;;;4.82;1.85;;;15.90;48.90;;;;;;6192220;23;20098;-82
2021/01/14 14:29:10;;;;;;;3.72;1.70;;;15.80;48.80;;;;;;6191002;23;20092;-82
2021/01/14 14:31:39;;;;;;;2.35;1.38;;;15.90;48.90;;;;;;6167488;23;20040;-82
2021/01/14 14:34:06;;;;;;;3.15;1.60;;;15.80;48.80;;;;;;6216814;23;20044;-83
2021/01/14 14:36:33;;;;;;;9.15;2.95;;;15.90;48.80;;;;;;6191524;23;20051;-79
2021/01/14 14:39:13;;;;;;;9.45;2.13;;;15.80;47.50;;;;;;6217897;23;20013;-81
2021/01/14 14:41:39;;;;;;;4.47;2.00;;;15.60;48.90;;;;;;6191295;23;20024;-82
2021/01/14 14:44:05;;;;;;;5.40;2.10;;;15.60;48.80;;;;;;6167581;23;20013;-83
2021/01/14 14:46:33;;;;;;;6.50;2.63;;;15.60;49.00;;;;;;6167386;23;20302;-81
2021/01/14 14:48:59;;;;;;;6.50;3.53;;;15.50;46.50;;;;;;6166523;23;20032;-84
2021/01/14 14:51:25;;;;;;;8.95;3.80;;;15.50;43.90;;;;;;6191291;23;20406;-82
2021/01/14 14:53:53;;;;;;;5.80;3.13;;;15.30;42.60;;;;;;6190957;23;20016;-83
2021/01/14 14:56:19;;;;;;;25.60;4.65;;;15.10;44.60;;;;;;6191522;23;20044;-81
2021/01/14 14:58:46;;;;;;;11.23;3.80;;;15.00;44.20;;;;;;6217557;23;20024;-81
2021/01/14 15:01:13;;;;;;;12.95;5.15;;;14.90;45.90;;;;;;6190705;23;20036;-83
2021/01/14 15:03:43;;;;;;;13.27;4.03;;;15.00;47.00;;;;;;6166911;23;20019;-82
2021/01/14 15:09:37;;;;;;;10.68;3.65;;;15.10;48.40;;;;;;6215039;23;20095;-86
2021/01/14 15:12:09;;;;;;;13.82;3.83;;;15.20;49.60;;;;;;6163702;23;20047;-82
2021/01/14 15:14:45;;;;;;;14.10;3.30;;;15.30;50.10;;;;;;6188138;23;20114;-84
2021/01/14 15:17:11;;;;;;;17.17;3.03;;;15.30;50.40;;;;;;6191560;23;20012;-80
2021/01/14 15:19:38;;;;;;;18.40;3.13;;;15.40;50.70;;;;;;6214586;23;20103;-84
2021/01/14 15:22:04;;;;;;;12.38;3.38;;;15.50;51.80;;;;;;6162401;23;20032;-84
2021/01/14 15:24:48;;;;;;;13.63;5.05;;;15.50;52.10;;;;;;6215189;23;20086;-84
2021/01/14 15:27:16;;;;;;;19.42;6.63;;;15.60;55.00;;;;;;6216688;23;20032;-84
2021/01/14 15:29:48;;;;;;;22.65;5.07;;;15.60;54.40;;;;;;6164573;23;20407;-87
2021/01/14 15:32:13;;;;;;;15.60;4.05;;;15.60;50.70;;;;;;6189656;23;20019;-83
2021/01/14 15:34:42;;;;;;;24.05;6.47;;;15.50;47.60;;;;;;6221080;23;20012;-85
2021/01/14 15:37:16;;;;;;;14.27;7.05;;;15.40;50.00;;;;;;6214235;23;20472;-86
2021/01/14 15:39:42;;;;;;;11.13;5.35;;;15.40;52.60;;;;;;6173431;23;20012;-84
2021/01/14 15:42:59;;;;;;;14.85;5.93;;;15.40;52.70;;;;;;6191836;23;20421;-92
2021/01/14 15:45:44;;;;;;;11.52;4.97;;;15.50;52.20;;;;;;6192424;23;20024;-88
2021/01/14 15:48:28;;;;;;;12.68;5.43;;;15.50;52.00;;;;;;6164166;23;20082;-87
2021/01/14 15:54:40;;;;;;;17.67;4.88;;;15.40;53.20;;;;;;6100331;23;19956;-91
2021/01/14 15:57:18;;;;;;;15.50;5.68;;;15.40;53.60;;;;;;6137508;23;20024;-89
2021/01/14 15:59:52;;;;;;;15.65;5.47;;;15.40;56.00;;;;;;6190364;23;20016;-85
2021/01/14 16:02:34;;;;;;;14.30;5.57;;;15.40;55.50;;;;;;6189384;23;20040;-92
2021/01/14 16:05:03;;;;;;;12.07;5.53;;;15.30;57.90;;;;;;6215719;23;20090;-86
2021/01/14 16:07:28;;;;;;;12.48;5.60;;;15.40;57.60;;;;;;6190848;23;20012;-85
2021/01/14 16:09:55;;;;;;;20.85;3.97;;;15.40;57.20;;;;;;6190279;23;20020;-86
2021/01/14 16:12:21;;;;;;;12.38;4.07;;;15.50;57.10;;;;;;6216376;23;20406;-85
2021/01/14 16:14:47;;;;;;;10.90;3.72;;;15.60;57.40;;;;;;6192892;23;20275;-84
2021/01/14 16:17:13;;;;;;;9.77;4.20;;;15.70;57.80;;;;;;6189872;23;20012;-84
2021/01/14 16:19:39;;;;;;;13.13;3.80;;;15.80;57.00;;;;;;6166255;23;20429;-85
2021/01/14 16:22:06;;;;;;;6.30;3.30;;;15.80;56.70;;;;;;6165918;23;20025;-85
2021/01/14 16:24:36;;;;;;;5.20;2.90;;;15.80;56.30;;;;;;6165529;23;20013;-85
2021/01/14 16:27:02;;;;;;;7.63;2.72;;;15.90;56.00;;;;;;6166398;23;20012;-82
2021/01/14 16:29:29;;;;;;;8.88;3.38;;;15.90;56.00;;;;;;6191089;23;20295;-82
2021/01/14 16:32:00;;;;;;;7.50;3.20;;;15.90;55.80;;;;;;6201820;23;20019;-82
2021/01/14 16:34:28;;;;;;;12.55;4.10;;;15.90;55.70;;;;;;6227240;23;20013;-82
2021/01/14 16:37:05;;;;;;;6.10;2.97;;;15.90;55.70;;;;;;6226252;23;20009;-81
2021/01/14 16:39:32;;;;;;;10.10;3.13;;;15.80;55.40;;;;;;6227030;23;20070;-82
2021/01/14 16:42:02;;;;;;;6.57;2.70;;;15.80;55.40;;;;;;6217445;23;20103;-82
2021/01/14 16:44:29;;;;;;;5.68;2.95;;;15.80;55.30;;;;;;6227289;23;20019;-82
2021/01/14 16:47:05;;;;;;;8.63;2.60;;;15.70;55.00;;;;;;6226558;23;20035;-82
2021/01/14 16:49:32;;;;;;;5.72;2.35;;;15.70;54.80;;;;;;6226590;23;20480;-80
2021/01/14 16:52:00;;;;;;;3.92;2.10;;;15.70;54.80;;;;;;6226616;23;20028;-81
2021/01/14 16:54:26;;;;;;;9.30;2.10;;;15.70;55.20;;;;;;6226826;23;20017;-81
2021/01/14 16:56:53;;;;;;;3.80;2.05;;;15.80;55.20;;;;;;6226629;23;20028;-81
2021/01/14 16:59:19;;;;;;;5.82;2.50;;;15.80;55.10;;;;;;6227216;23;20020;-81